sensor_id;sensor_type;location;lat;lon;timestamp;pressure;altitude;pressure_sealevel;temperature;humidity
59877;BME280;45749;51.140;17.184;2022-08-01T00:01:11;99863.72;;;15.85;90.33
59877;BME280;45749;51.140;17.184;2022-08-01T00:03:34;99869.02;;;15.81;91.08
59877;BME280;45749;51.140;17.184;2022-08-01T00:06:00;99869.50;;;15.77;90.87
59877;BME280;45749;51.140;17.184;2022-08-01T00:08:47;99870.11;;;15.70;91.07
59877;BME280;45749;51.140;17.184;2022-08-01T00:11:15;99866.10;;;15.66;91.21
59877;BME280;45749;51.140;17.184;2022-08-01T00:16:07;99841.00;;;15.47;91.57
59877;BME280;45749;51.140;17.184;2022-08-01T00:18:33;99861.51;;;15.59;91.37
59877;BME280;45749;51.140;17.184;2022-08-01T00:21:02;99860.77;;;15.48;91.38
59877;BME280;45749;51.140;17.184;2022-08-01T00:23:29;99860.77;;;15.48;91.38
59877;BME280;45749;51.140;17.184;2022-08-01T00:25:57;99863.41;;;15.44;91.77
59877;BME280;45749;51.140;17.184;2022-08-01T00:28:23;99852.77;;;15.44;91.45
59877;BME280;45749;51.140;17.184;2022-08-01T00:30:49;99852.77;;;15.44;91.45
59877;BME280;45749;51.140;17.184;2022-08-01T00:33:35;99830.73;;;15.30;91.48
59877;BME280;45749;51.140;17.184;2022-08-01T00:36:08;99854.73;;;15.42;91.46
59877;BME280;45749;51.140;17.184;2022-08-01T00:38:34;99851.11;;;15.43;91.43
59877;BME280;45749;51.140;17.184;2022-08-01T00:41:02;99846.75;;;15.42;91.12
59877;BME280;45749;51.140;17.184;2022-08-01T00:43:28;99853.92;;;15.46;90.91
59877;BME280;45749;51.140;17.184;2022-08-01T00:48:52;99855.62;;;15.47;90.73
59877;BME280;45749;51.140;17.184;2022-08-01T00:51:39;99852.59;;;15.46;91.59
59877;BME280;45749;51.140;17.184;2022-08-01T00:54:18;99852.08;;;15.42;91.73
59877;BME280;45749;51.140;17.184;2022-08-01T00:56:44;99848.59;;;15.42;91.84
59877;BME280;45749;51.140;17.184;2022-08-01T00:59:16;99826.69;;;15.26;92.09
59877;BME280;45749;51.140;17.184;2022-08-01T01:01:43;99844.70;;;15.36;92.34
59877;BME280;45749;51.140;17.184;2022-08-01T01:04:09;99840.06;;;15.34;92.33
59877;BME280;45749;51.140;17.184;2022-08-01T01:10:16;99842.22;;;15.35;92.44
59877;BME280;45749;51.140;17.184;2022-08-01T01:15:46;99837.68;;;15.27;92.68
59877;BME280;45749;51.140;17.184;2022-08-01T01:18:32;99836.80;;;15.22;92.79
59877;BME280;45749;51.140;17.184;2022-08-01T01:29:28;99835.21;;;15.12;93.16
59877;BME280;45749;51.140;17.184;2022-08-01T01:35:21;99833.63;;;15.01;93.16
59877;BME280;45749;51.140;17.184;2022-08-01T01:37:56;99833.09;;;14.97;93.33
59877;BME280;45749;51.140;17.184;2022-08-01T01:40:25;99807.41;;;14.84;93.00
59877;BME280;45749;51.140;17.184;2022-08-01T01:42:53;99828.42;;;14.95;93.04
59877;BME280;45749;51.140;17.184;2022-08-01T01:45:21;99832.41;;;14.95;93.18
59877;BME280;45749;51.140;17.184;2022-08-01T01:47:50;99824.91;;;14.91;93.24
59877;BME280;45749;51.140;17.184;2022-08-01T01:50:19;99819.89;;;14.88;93.54
59877;BME280;45749;51.140;17.184;2022-08-01T01:52:46;99819.19;;;14.86;93.59
59877;BME280;45749;51.140;17.184;2022-08-01T01:55:15;99818.50;;;14.84;93.60
59877;BME280;45749;51.140;17.184;2022-08-01T01:57:44;99813.68;;;14.83;93.70
59877;BME280;45749;51.140;17.184;2022-08-01T02:00:11;99813.34;;;14.82;94.00
59877;BME280;45749;51.140;17.184;2022-08-01T02:02:39;99806.02;;;14.80;93.87
59877;BME280;45749;51.140;17.184;2022-08-01T02:05:09;99815.17;;;14.82;93.84
59877;BME280;45749;51.140;17.184;2022-08-01T02:07:37;99809.70;;;14.83;93.85
59877;BME280;45749;51.140;17.184;2022-08-01T02:10:05;99815.38;;;14.84;93.97
59877;BME280;45749;51.140;17.184;2022-08-01T02:12:35;99808.37;;;14.83;94.04
59877;BME280;45749;51.140;17.184;2022-08-01T02:15:03;99804.55;;;14.82;94.15
59877;BME280;45749;51.140;17.184;2022-08-01T02:17:31;99805.38;;;14.82;94.33
59877;BME280;45749;51.140;17.184;2022-08-01T02:19:57;99808.87;;;14.83;94.12
59877;BME280;45749;51.140;17.184;2022-08-01T02:23:00;99806.91;;;14.85;93.97
59877;BME280;45749;51.140;17.184;2022-08-01T02:25:36;99806.41;;;14.85;94.04
59877;BME280;45749;51.140;17.184;2022-08-01T02:28:17;99809.20;;;14.84;94.01
59877;BME280;45749;51.140;17.184;2022-08-01T02:30:59;99805.38;;;14.82;94.07
59877;BME280;45749;51.140;17.184;2022-08-01T02:33:35;99810.36;;;14.81;94.38
59877;BME280;45749;51.140;17.184;2022-08-01T02:36:06;99807.34;;;14.80;94.37
59877;BME280;45749;51.140;17.184;2022-08-01T02:38:39;99809.47;;;14.76;95.84
59877;BME280;45749;51.140;17.184;2022-08-01T02:41:11;99807.94;;;14.74;95.48
59877;BME280;45749;51.140;17.184;2022-08-01T02:43:42;99808.44;;;14.73;95.56
59877;BME280;45749;51.140;17.184;2022-08-01T02:46:12;99806.14;;;14.74;95.55
59877;BME280;45749;51.140;17.184;2022-08-01T02:48:41;99805.15;;;14.75;95.41
59877;BME280;45749;51.140;17.184;2022-08-01T02:51:08;99807.81;;;14.75;95.42
59877;BME280;45749;51.140;17.184;2022-08-01T02:53:38;99808.50;;;14.77;95.29
59877;BME280;45749;51.140;17.184;2022-08-01T02:56:08;99813.31;;;14.78;95.78
59877;BME280;45749;51.140;17.184;2022-08-01T02:58:36;99813.65;;;14.79;95.80
59877;BME280;45749;51.140;17.184;2022-08-01T03:01:04;99814.64;;;14.78;95.76
59877;BME280;45749;51.140;17.184;2022-08-01T03:03:32;99807.50;;;14.78;95.84
59877;BME280;45749;51.140;17.184;2022-08-01T03:06:00;99810.66;;;14.78;96.02
59877;BME280;45749;51.140;17.184;2022-08-01T03:08:29;99813.98;;;14.80;95.93
59877;BME280;45749;51.140;17.184;2022-08-01T03:10:57;99807.84;;;14.80;95.67
59877;BME280;45749;51.140;17.184;2022-08-01T03:13:25;99809.03;;;14.81;95.85
59877;BME280;45749;51.140;17.184;2022-08-01T03:15:54;99808.67;;;14.80;95.78
59877;BME280;45749;51.140;17.184;2022-08-01T03:18:24;99805.05;;;14.81;95.82
59877;BME280;45749;51.140;17.184;2022-08-01T03:20:51;99807.20;;;14.82;95.79
59877;BME280;45749;51.140;17.184;2022-08-01T03:23:18;99807.53;;;14.83;96.20
59877;BME280;45749;51.140;17.184;2022-08-01T03:25:47;99802.56;;;14.84;96.06
59877;BME280;45749;51.140;17.184;2022-08-01T03:28:16;99806.73;;;14.86;95.84
59877;BME280;45749;51.140;17.184;2022-08-01T03:30:43;99808.90;;;14.87;96.28
59877;BME280;45749;51.140;17.184;2022-08-01T03:33:10;99812.25;;;14.89;96.36
59877;BME280;45749;51.140;17.184;2022-08-01T03:35:45;99805.11;;;14.89;96.29
59877;BME280;45749;51.140;17.184;2022-08-01T03:38:09;99808.77;;;14.88;95.98
59877;BME280;45749;51.140;17.184;2022-08-01T03:40:41;99802.45;;;14.89;96.22
59877;BME280;45749;51.140;17.184;2022-08-01T03:43:30;99801.45;;;14.90;96.44
59877;BME280;45749;51.140;17.184;2022-08-01T03:45:54;99798.86;;;14.94;96.18
59877;BME280;45749;51.140;17.184;2022-08-01T03:48:26;99798.20;;;14.96;96.24
59877;BME280;45749;51.140;17.184;2022-08-01T03:50:53;99796.38;;;14.97;96.15
59877;BME280;45749;51.140;17.184;2022-08-01T03:53:22;99802.68;;;14.96;96.40
59877;BME280;45749;51.140;17.184;2022-08-01T03:55:51;99808.49;;;14.95;96.21
59877;BME280;45749;51.140;17.184;2022-08-01T03:58:21;99801.35;;;14.96;96.14
59877;BME280;45749;51.140;17.184;2022-08-01T04:00:47;99797.56;;;14.98;96.30
59877;BME280;45749;51.140;17.184;2022-08-01T04:03:14;99800.05;;;15.00;96.45
59877;BME280;45749;51.140;17.184;2022-08-01T04:05:42;99804.09;;;15.04;96.41
59877;BME280;45749;51.140;17.184;2022-08-01T04:08:09;99804.77;;;15.06;96.59
59877;BME280;45749;51.140;17.184;2022-08-01T04:10:35;99811.93;;;15.10;96.80
59877;BME280;45749;51.140;17.184;2022-08-01T04:13:02;99814.78;;;15.12;96.60
59877;BME280;45749;51.140;17.184;2022-08-01T04:15:28;99821.29;;;15.14;96.30
59877;BME280;45749;51.140;17.184;2022-08-01T04:17:54;99817.30;;;15.14;96.36
59877;BME280;45749;51.140;17.184;2022-08-01T04:20:21;99817.97;;;15.16;96.22
59877;BME280;45749;51.140;17.184;2022-08-01T04:22:47;99818.80;;;15.16;96.27
59877;BME280;45749;51.140;17.184;2022-08-01T04:25:25;99817.97;;;15.16;96.40
59877;BME280;45749;51.140;17.184;2022-08-01T04:27:54;99820.82;;;15.18;96.20
59877;BME280;45749;51.140;17.184;2022-08-01T04:30:26;99821.02;;;15.21;96.17
59877;BME280;45749;51.140;17.184;2022-08-01T04:32:57;99817.36;;;15.22;96.07
59877;BME280;45749;51.140;17.184;2022-08-01T04:35:26;99817.55;;;15.24;96.38
59877;BME280;45749;51.140;17.184;2022-08-01T04:37:53;99817.38;;;15.26;96.33
59877;BME280;45749;51.140;17.184;2022-08-01T04:40:20;99816.42;;;15.27;96.27
59877;BME280;45749;51.140;17.184;2022-08-01T04:42:48;99814.23;;;15.27;96.05
59877;BME280;45749;51.140;17.184;2022-08-01T04:45:15;99810.73;;;15.26;96.15
59877;BME280;45749;51.140;17.184;2022-08-01T04:47:42;99816.75;;;15.28;96.26
59877;BME280;45749;51.140;17.184;2022-08-01T04:50:09;99814.42;;;15.29;96.26
59877;BME280;45749;51.140;17.184;2022-08-01T04:52:37;99811.77;;;15.29;96.22
59877;BME280;45749;51.140;17.184;2022-08-01T04:55:04;99812.95;;;15.31;96.53
59877;BME280;45749;51.140;17.184;2022-08-01T04:57:34;99816.77;;;15.32;96.34
59877;BME280;45749;51.140;17.184;2022-08-01T05:00:03;99821.59;;;15.33;96.34
59877;BME280;45749;51.140;17.184;2022-08-01T05:02:30;99819.77;;;15.33;96.02
59877;BME280;45749;51.140;17.184;2022-08-01T05:04:56;99820.43;;;15.31;96.12
59877;BME280;45749;51.140;17.184;2022-08-01T05:07:22;99818.59;;;15.32;96.04
59877;BME280;45749;51.140;17.184;2022-08-01T05:09:48;99811.13;;;15.31;96.08
59877;BME280;45749;51.140;17.184;2022-08-01T05:12:14;99816.77;;;15.32;96.17
59877;BME280;45749;51.140;17.184;2022-08-01T05:14:41;99816.27;;;15.33;96.24
59877;BME280;45749;51.140;17.184;2022-08-01T05:17:08;99813.80;;;15.35;96.10
59877;BME280;45749;51.140;17.184;2022-08-01T05:19:36;99818.30;;;15.35;96.07
59877;BME280;45749;51.140;17.184;2022-08-01T05:22:06;99813.80;;;15.35;96.18
59877;BME280;45749;51.140;17.184;2022-08-01T05:24:35;99819.81;;;15.37;96.37
59877;BME280;45749;51.140;17.184;2022-08-01T05:27:03;99817.31;;;15.40;96.37
59877;BME280;45749;51.140;17.184;2022-08-01T05:29:29;99812.17;;;15.38;96.38
59877;BME280;45749;51.140;17.184;2022-08-01T05:31:56;99814.19;;;15.40;96.45
59877;BME280;45749;51.140;17.184;2022-08-01T05:34:23;99818.20;;;15.44;96.92
59877;BME280;45749;51.140;17.184;2022-08-01T05:36:49;99818.03;;;15.46;96.82
59877;BME280;45749;51.140;17.184;2022-08-01T05:39:15;99811.25;;;15.47;96.71
59877;BME280;45749;51.140;17.184;2022-08-01T05:41:41;99808.92;;;15.48;96.57
59877;BME280;45749;51.140;17.184;2022-08-01T05:44:08;99812.91;;;15.48;96.68
59877;BME280;45749;51.140;17.184;2022-08-01T05:46:35;99810.58;;;15.49;96.89
59877;BME280;45749;51.140;17.184;2022-08-01T05:49:02;99812.92;;;15.53;96.79
59877;BME280;45749;51.140;17.184;2022-08-01T05:51:29;99810.13;;;15.54;96.92
59877;BME280;45749;51.140;17.184;2022-08-01T05:53:55;99812.13;;;15.56;97.04
59877;BME280;45749;51.140;17.184;2022-08-01T05:56:22;99807.82;;;15.59;97.19
59877;BME280;45749;51.140;17.184;2022-08-01T05:58:49;99811.00;;;15.63;97.27
59877;BME280;45749;51.140;17.184;2022-08-01T06:01:16;99812.02;;;15.66;97.33
59877;BME280;45749;51.140;17.184;2022-08-01T06:03:43;99813.43;;;15.70;97.29
59877;BME280;45749;51.140;17.184;2022-08-01T06:06:09;99818.44;;;15.73;97.07
59877;BME280;45749;51.140;17.184;2022-08-01T06:08:36;99818.59;;;15.76;97.06
59877;BME280;45749;51.140;17.184;2022-08-01T06:11:02;99817.45;;;15.78;97.05
59877;BME280;45749;51.140;17.184;2022-08-01T06:13:28;99817.31;;;15.80;96.79
59877;BME280;45749;51.140;17.184;2022-08-01T06:15:54;99815.17;;;15.83;97.13
59877;BME280;45749;51.140;17.184;2022-08-01T06:18:20;99824.64;;;15.86;97.18
59877;BME280;45749;51.140;17.184;2022-08-01T06:20:46;99814.38;;;15.91;96.98
59877;BME280;45749;51.140;17.184;2022-08-01T06:23:13;99814.38;;;15.91;96.98
59877;BME280;45749;51.140;17.184;2022-08-01T06:25:41;99819.70;;;15.95;97.12
59877;BME280;45749;51.140;17.184;2022-08-01T06:28:08;99814.43;;;15.99;97.25
59877;BME280;45749;51.140;17.184;2022-08-01T06:30:36;99821.92;;;16.04;97.41
59877;BME280;45749;51.140;17.184;2022-08-01T06:33:02;99828.27;;;16.07;97.23
59877;BME280;45749;51.140;17.184;2022-08-01T06:35:28;99830.11;;;16.10;97.34
59877;BME280;45749;51.140;17.184;2022-08-01T06:37:56;99827.79;;;16.15;97.56
59877;BME280;45749;51.140;17.184;2022-08-01T06:40:22;99832.48;;;16.22;98.05
59877;BME280;45749;51.140;17.184;2022-08-01T06:42:48;99829.36;;;16.26;97.88
59877;BME280;45749;51.140;17.184;2022-08-01T06:45:15;99811.55;;;16.27;97.55
59877;BME280;45749;51.140;17.184;2022-08-01T06:47:43;99811.55;;;16.27;97.55
59877;BME280;45749;51.140;17.184;2022-08-01T06:50:10;99829.42;;;16.47;97.88
59877;BME280;45749;51.140;17.184;2022-08-01T06:52:37;99828.46;;;16.56;97.66
59877;BME280;45749;51.140;17.184;2022-08-01T06:55:04;99828.46;;;16.56;97.66
59877;BME280;45749;51.140;17.184;2022-08-01T06:57:31;99806.14;;;16.49;97.43
59877;BME280;45749;51.140;17.184;2022-08-01T07:00:07;99795.50;;;16.53;97.68
59877;BME280;45749;51.140;17.184;2022-08-01T07:02:36;99830.34;;;16.72;97.92
59877;BME280;45749;51.140;17.184;2022-08-01T07:05:03;99827.89;;;16.78;97.88
59877;BME280;45749;51.140;17.184;2022-08-01T07:07:30;99829.40;;;16.85;97.86
59877;BME280;45749;51.140;17.184;2022-08-01T07:09:56;99828.25;;;16.92;97.91
59877;BME280;45749;51.140;17.184;2022-08-01T07:12:22;99816.76;;;16.95;98.07
59877;BME280;45749;51.140;17.184;2022-08-01T07:14:48;99830.40;;;17.04;97.79
59877;BME280;45749;51.140;17.184;2022-08-01T07:17:14;99829.41;;;17.14;98.36
59877;BME280;45749;51.140;17.184;2022-08-01T07:19:40;99823.59;;;17.22;98.40
59877;BME280;45749;51.140;17.184;2022-08-01T07:22:06;99826.09;;;17.32;98.37
59877;BME280;45749;51.140;17.184;2022-08-01T07:24:32;99824.93;;;17.39;98.13
59877;BME280;45749;51.140;17.184;2022-08-01T07:26:58;99831.25;;;17.46;98.05
59877;BME280;45749;51.140;17.184;2022-08-01T07:29:25;99828.41;;;17.55;98.14
59877;BME280;45749;51.140;17.184;2022-08-01T07:31:53;99834.40;;;17.66;98.07
59877;BME280;45749;51.140;17.184;2022-08-01T07:34:20;99828.88;;;17.75;98.09
59877;BME280;45749;51.140;17.184;2022-08-01T07:36:46;99831.22;;;17.87;98.53
59877;BME280;45749;51.140;17.184;2022-08-01T07:39:12;99833.22;;;17.97;98.21
59877;BME280;45749;51.140;17.184;2022-08-01T07:41:38;99833.16;;;18.09;98.40
59877;BME280;45749;51.140;17.184;2022-08-01T07:44:04;99833.47;;;18.18;98.12
59877;BME280;45749;51.140;17.184;2022-08-01T07:46:30;99840.62;;;18.30;98.14
59877;BME280;45749;51.140;17.184;2022-08-01T07:48:56;99836.70;;;18.45;97.94
59877;BME280;45749;51.140;17.184;2022-08-01T07:51:22;99824.11;;;18.58;98.52
59877;BME280;45749;51.140;17.184;2022-08-01T07:53:48;99827.91;;;18.76;98.43
59877;BME280;45749;51.140;17.184;2022-08-01T07:56:14;99826.11;;;18.91;97.97
59877;BME280;45749;51.140;17.184;2022-08-01T07:58:40;99825.64;;;19.10;97.86
59877;BME280;45749;51.140;17.184;2022-08-01T08:01:06;99823.00;;;19.29;97.15
59877;BME280;45749;51.140;17.184;2022-08-01T08:03:32;99826.16;;;19.48;97.00
59877;BME280;45749;51.140;17.184;2022-08-01T08:05:58;99825.22;;;19.63;96.74
59877;BME280;45749;51.140;17.184;2022-08-01T08:08:24;99831.95;;;19.78;95.49
59877;BME280;45749;51.140;17.184;2022-08-01T08:10:50;99832.91;;;19.96;93.91
59877;BME280;45749;51.140;17.184;2022-08-01T08:13:16;99833.98;;;20.06;92.83
59877;BME280;45749;51.140;17.184;2022-08-01T08:15:43;99833.70;;;20.15;92.51
59877;BME280;45749;51.140;17.184;2022-08-01T08:18:09;99835.45;;;20.23;91.37
59877;BME280;45749;51.140;17.184;2022-08-01T08:20:34;99834.08;;;20.27;90.79
59877;BME280;45749;51.140;17.184;2022-08-01T08:23:00;99833.37;;;20.29;91.28
59877;BME280;45749;51.140;17.184;2022-08-01T08:25:27;99840.06;;;20.29;90.27
59877;BME280;45749;51.140;17.184;2022-08-01T08:27:54;99844.59;;;20.29;90.48
59877;BME280;45749;51.140;17.184;2022-08-01T08:30:20;99844.42;;;20.30;90.17
59877;BME280;45749;51.140;17.184;2022-08-01T08:32:46;99847.94;;;20.31;89.79
59877;BME280;45749;51.140;17.184;2022-08-01T08:35:13;99856.28;;;20.32;90.03
59877;BME280;45749;51.140;17.184;2022-08-01T08:37:39;99853.75;;;20.34;89.98
59877;BME280;45749;51.140;17.184;2022-08-01T08:40:06;99854.52;;;20.39;89.69
59877;BME280;45749;51.140;17.184;2022-08-01T08:42:33;99863.02;;;20.43;89.72
59877;BME280;45749;51.140;17.184;2022-08-01T08:45:00;99852.58;;;20.48;89.21
59877;BME280;45749;51.140;17.184;2022-08-01T08:47:28;99856.71;;;20.54;89.72
59877;BME280;45749;51.140;17.184;2022-08-01T08:49:56;99864.01;;;20.60;89.76
59877;BME280;45749;51.140;17.184;2022-08-01T08:52:22;99856.36;;;20.68;89.37
59877;BME280;45749;51.140;17.184;2022-08-01T08:54:50;99861.14;;;20.73;88.92
59877;BME280;45749;51.140;17.184;2022-08-01T08:57:18;99855.23;;;20.77;88.52
59877;BME280;45749;51.140;17.184;2022-08-01T08:59:46;99866.66;;;20.86;87.77
59877;BME280;45749;51.140;17.184;2022-08-01T09:02:12;99867.58;;;20.93;88.12
59877;BME280;45749;51.140;17.184;2022-08-01T09:04:39;99871.67;;;21.00;88.40
59877;BME280;45749;51.140;17.184;2022-08-01T09:07:06;99869.75;;;21.04;87.88
59877;BME280;45749;51.140;17.184;2022-08-01T09:09:34;99875.19;;;21.11;87.50
59877;BME280;45749;51.140;17.184;2022-08-01T09:12:00;99873.53;;;21.21;87.44
59877;BME280;45749;51.140;17.184;2022-08-01T09:14:26;99873.34;;;21.33;87.54
59877;BME280;45749;51.140;17.184;2022-08-01T09:17:03;99878.22;;;21.44;86.93
59877;BME280;45749;51.140;17.184;2022-08-01T09:19:37;99880.44;;;21.51;85.76
59877;BME280;45749;51.140;17.184;2022-08-01T09:22:08;99874.69;;;21.54;85.42
59877;BME280;45749;51.140;17.184;2022-08-01T09:24:36;99880.50;;;21.58;85.58
59877;BME280;45749;51.140;17.184;2022-08-01T09:27:20;99881.80;;;21.62;85.03
59877;BME280;45749;51.140;17.184;2022-08-01T09:29:49;99882.55;;;21.67;85.41
59877;BME280;45749;51.140;17.184;2022-08-01T09:32:17;99874.67;;;21.76;84.66
59877;BME280;45749;51.140;17.184;2022-08-01T09:34:43;99871.31;;;21.85;85.49
59877;BME280;45749;51.140;17.184;2022-08-01T09:37:09;99872.83;;;21.94;85.09
59877;BME280;45749;51.140;17.184;2022-08-01T09:39:37;99877.11;;;21.99;84.96
59877;BME280;45749;51.140;17.184;2022-08-01T09:44:49;99879.11;;;22.08;84.15
59877;BME280;45749;51.140;17.184;2022-08-01T09:47:16;99874.97;;;22.16;84.67
59877;BME280;45749;51.140;17.184;2022-08-01T09:49:54;99871.41;;;22.26;84.90
59877;BME280;45749;51.140;17.184;2022-08-01T09:52:23;99873.47;;;22.41;82.75
59877;BME280;45749;51.140;17.184;2022-08-01T09:54:57;99877.83;;;22.49;81.27
59877;BME280;45749;51.140;17.184;2022-08-01T09:57:25;99875.05;;;22.53;81.26
59877;BME280;45749;51.140;17.184;2022-08-01T09:59:55;99867.51;;;22.53;80.92
59877;BME280;45749;51.140;17.184;2022-08-01T10:02:31;99873.43;;;22.59;81.55
59877;BME280;45749;51.140;17.184;2022-08-01T10:05:06;99867.25;;;22.65;80.77
59877;BME280;45749;51.140;17.184;2022-08-01T10:07:34;99863.15;;;22.76;81.16
59877;BME280;45749;51.140;17.184;2022-08-01T10:10:14;99869.19;;;22.84;81.06
59877;BME280;45749;51.140;17.184;2022-08-01T10:12:43;99870.08;;;22.98;81.43
59877;BME280;45749;51.140;17.184;2022-08-01T10:15:09;99869.27;;;23.04;80.77
59877;BME280;45749;51.140;17.184;2022-08-01T10:17:38;99864.50;;;23.06;80.58
59877;BME280;45749;51.140;17.184;2022-08-01T10:20:07;99865.23;;;23.04;79.64
59877;BME280;45749;51.140;17.184;2022-08-01T10:22:34;99864.08;;;23.03;79.67
59877;BME280;45749;51.140;17.184;2022-08-01T10:25:03;99859.63;;;23.06;80.33
59877;BME280;45749;51.140;17.184;2022-08-01T10:27:32;99859.57;;;23.16;81.23
59877;BME280;45749;51.140;17.184;2022-08-01T10:30:01;99862.88;;;23.25;80.64
59877;BME280;45749;51.140;17.184;2022-08-01T10:32:32;99863.94;;;23.37;80.89
59877;BME280;45749;51.140;17.184;2022-08-01T10:35:00;99862.30;;;23.43;80.82
59877;BME280;45749;51.140;17.184;2022-08-01T10:37:27;99856.50;;;23.46;80.04
59877;BME280;45749;51.140;17.184;2022-08-01T10:39:54;99854.30;;;23.52;79.92
59877;BME280;45749;51.140;17.184;2022-08-01T10:42:21;99856.98;;;23.59;80.49
59877;BME280;45749;51.140;17.184;2022-08-01T10:44:47;99856.49;;;23.66;78.81
59877;BME280;45749;51.140;17.184;2022-08-01T10:47:21;99861.05;;;23.72;79.05
59877;BME280;45749;51.140;17.184;2022-08-01T10:49:51;99854.02;;;23.78;77.87
59877;BME280;45749;51.140;17.184;2022-08-01T10:52:22;99852.66;;;23.84;79.20
59877;BME280;45749;51.140;17.184;2022-08-01T10:54:48;99854.94;;;23.87;78.01
59877;BME280;45749;51.140;17.184;2022-08-01T10:57:14;99850.70;;;23.89;77.33
59877;BME280;45749;51.140;17.184;2022-08-01T10:59:51;99853.27;;;24.00;78.76
59877;BME280;45749;51.140;17.184;2022-08-01T11:02:32;99853.02;;;24.08;77.12
59877;BME280;45749;51.140;17.184;2022-08-01T11:05:07;99852.41;;;24.13;78.14
59877;BME280;45749;51.140;17.184;2022-08-01T11:07:43;99859.94;;;24.26;77.96
59877;BME280;45749;51.140;17.184;2022-08-01T11:10:41;99858.27;;;24.32;77.08
59877;BME280;45749;51.140;17.184;2022-08-01T11:13:08;99857.41;;;24.31;77.18
59877;BME280;45749;51.140;17.184;2022-08-01T11:15:37;99843.02;;;24.42;77.96
59877;BME280;45749;51.140;17.184;2022-08-01T11:20:58;99860.30;;;24.50;76.73
59877;BME280;45749;51.140;17.184;2022-08-01T11:23:28;99857.67;;;24.59;76.21
59877;BME280;45749;51.140;17.184;2022-08-01T11:28:29;99848.04;;;24.76;76.06
59877;BME280;45749;51.140;17.184;2022-08-01T11:36:16;99846.03;;;24.65;74.42
59877;BME280;45749;51.140;17.184;2022-08-01T11:38:49;99849.03;;;24.66;74.23
59877;BME280;45749;51.140;17.184;2022-08-01T11:41:16;99849.55;;;24.66;74.17
59877;BME280;45749;51.140;17.184;2022-08-01T11:44:17;99845.08;;;24.69;74.91
59877;BME280;45749;51.140;17.184;2022-08-01T11:49:45;99846.20;;;24.70;75.81
59877;BME280;45749;51.140;17.184;2022-08-01T11:52:18;99849.81;;;24.73;75.34
59877;BME280;45749;51.140;17.184;2022-08-01T11:54:51;99847.87;;;24.71;74.30
59877;BME280;45749;51.140;17.184;2022-08-01T11:57:20;99849.65;;;24.68;74.56
59877;BME280;45749;51.140;17.184;2022-08-01T11:59:56;99855.38;;;24.63;73.53
59877;BME280;45749;51.140;17.184;2022-08-01T12:02:28;99853.00;;;24.57;74.72
59877;BME280;45749;51.140;17.184;2022-08-01T12:05:11;99848.66;;;24.56;74.28
59877;BME280;45749;51.140;17.184;2022-08-01T12:07:41;99853.66;;;24.52;74.19
59877;BME280;45749;51.140;17.184;2022-08-01T12:10:16;99845.89;;;24.47;73.00
59877;BME280;45749;51.140;17.184;2022-08-01T12:12:50;99847.54;;;24.48;73.34
59877;BME280;45749;51.140;17.184;2022-08-01T12:15:14;99841.02;;;24.46;72.92
59877;BME280;45749;51.140;17.184;2022-08-01T12:17:48;99842.67;;;24.47;72.69
59877;BME280;45749;51.140;17.184;2022-08-01T12:20:20;99844.64;;;24.49;73.34
59877;BME280;45749;51.140;17.184;2022-08-01T12:22:47;99845.04;;;24.53;72.53
59877;BME280;45749;51.140;17.184;2022-08-01T12:25:15;99845.04;;;24.53;72.69
59877;BME280;45749;51.140;17.184;2022-08-01T12:27:44;99844.74;;;24.52;73.65
59877;BME280;45749;51.140;17.184;2022-08-01T12:30:17;99848.03;;;24.54;73.20
59877;BME280;45749;51.140;17.184;2022-08-01T12:32:46;99840.77;;;24.54;72.98
59877;BME280;45749;51.140;17.184;2022-08-01T12:35:23;99843.80;;;24.55;73.20
59877;BME280;45749;51.140;17.184;2022-08-01T12:37:45;99838.92;;;24.55;72.27
59877;BME280;45749;51.140;17.184;2022-08-01T12:40:21;99837.64;;;24.57;72.97
59877;BME280;45749;51.140;17.184;2022-08-01T12:42:51;99840.67;;;24.59;72.79
59877;BME280;45749;51.140;17.184;2022-08-01T12:48:01;99839.39;;;24.61;71.65
59877;BME280;45749;51.140;17.184;2022-08-01T12:50:30;99837.70;;;24.67;71.94
59877;BME280;45749;51.140;17.184;2022-08-01T12:52:57;99834.68;;;24.72;72.58
59877;BME280;45749;51.140;17.184;2022-08-01T12:55:25;99831.28;;;24.84;72.78
59877;BME280;45749;51.140;17.184;2022-08-01T12:58:10;99839.63;;;24.98;72.57
59877;BME280;45749;51.140;17.184;2022-08-01T13:00:38;99827.83;;;25.08;72.44
59877;BME280;45749;51.140;17.184;2022-08-01T13:05:42;99833.70;;;25.30;71.96
59877;BME280;45749;51.140;17.184;2022-08-01T13:08:25;99833.36;;;25.36;70.69
59877;BME280;45749;51.140;17.184;2022-08-01T13:11:09;99836.59;;;25.35;70.29
59877;BME280;45749;51.140;17.184;2022-08-01T13:13:43;99838.72;;;25.26;69.74
59877;BME280;45749;51.140;17.184;2022-08-01T13:16:08;99838.81;;;25.13;70.11
59877;BME280;45749;51.140;17.184;2022-08-01T13:18:35;99846.23;;;25.02;69.92
59877;BME280;45749;51.140;17.184;2022-08-01T13:26:54;99840.54;;;24.63;70.67
59877;BME280;45749;51.140;17.184;2022-08-01T13:29:33;99841.92;;;24.56;71.40
59877;BME280;45749;51.140;17.184;2022-08-01T13:34:42;99849.71;;;24.55;71.95
59877;BME280;45749;51.140;17.184;2022-08-01T13:37:08;99848.83;;;24.61;71.81
59877;BME280;45749;51.140;17.184;2022-08-01T13:39:34;99841.85;;;24.69;71.57
59877;BME280;45749;51.140;17.184;2022-08-01T13:42:08;99840.34;;;24.80;71.69
59877;BME280;45749;51.140;17.184;2022-08-01T13:44:36;99836.61;;;24.97;71.27
59877;BME280;45749;51.140;17.184;2022-08-01T13:47:03;99838.63;;;25.08;70.99
59877;BME280;45749;51.140;17.184;2022-08-01T13:49:30;99831.86;;;25.15;71.44
59877;BME280;45749;51.140;17.184;2022-08-01T13:51:57;99833.08;;;25.19;71.63
59877;BME280;45749;51.140;17.184;2022-08-01T13:54:23;99833.70;;;25.21;71.33